sensor_id;sensor_type;location;lat;lon;timestamp;temperature;humidity
6841;DHT22;3458;53.678;14.080;2023-05-14T00:00:11;16.20;50.10
6841;DHT22;3458;53.678;14.080;2023-05-14T00:02:37;16.20;50.20
6841;DHT22;3458;53.678;14.080;2023-05-14T00:05:02;16.20;50.60
6841;DHT22;3458;53.678;14.080;2023-05-14T00:07:28;16.10;50.70
6841;DHT22;3458;53.678;14.080;2023-05-14T00:09:55;16.10;50.90
6841;DHT22;3458;53.678;14.080;2023-05-14T00:12:21;16.10;51.10
6841;DHT22;3458;53.678;14.080;2023-05-14T00:14:46;16.00;51.20
6841;DHT22;3458;53.678;14.080;2023-05-14T00:17:12;16.00;51.30
6841;DHT22;3458;53.678;14.080;2023-05-14T00:19:37;16.00;51.40
6841;DHT22;3458;53.678;14.080;2023-05-14T00:22:06;16.00;51.30
6841;DHT22;3458;53.678;14.080;2023-05-14T00:24:32;15.90;51.20
6841;DHT22;3458;53.678;14.080;2023-05-14T00:26:57;15.90;51.30
6841;DHT22;3458;53.678;14.080;2023-05-14T00:29:23;15.80;51.40
6841;DHT22;3458;53.678;14.080;2023-05-14T00:31:48;15.80;51.60
6841;DHT22;3458;53.678;14.080;2023-05-14T00:34:14;15.80;51.60
6841;DHT22;3458;53.678;14.080;2023-05-14T00:36:40;15.80;51.80
6841;DHT22;3458;53.678;14.080;2023-05-14T00:39:05;15.80;51.90
6841;DHT22;3458;53.678;14.080;2023-05-14T00:41:30;15.70;51.90
6841;DHT22;3458;53.678;14.080;2023-05-14T00:43:56;15.70;52.00
6841;DHT22;3458;53.678;14.080;2023-05-14T00:46:21;15.70;52.00
6841;DHT22;3458;53.678;14.080;2023-05-14T00:48:47;15.60;51.70
6841;DHT22;3458;53.678;14.080;2023-05-14T00:51:13;15.60;51.60
6841;DHT22;3458;53.678;14.080;2023-05-14T00:53:38;15.60;51.80
6841;DHT22;3458;53.678;14.080;2023-05-14T00:56:04;15.50;51.60
6841;DHT22;3458;53.678;14.080;2023-05-14T00:58:31;15.40;51.50
6841;DHT22;3458;53.678;14.080;2023-05-14T01:00:56;15.40;51.40
6841;DHT22;3458;53.678;14.080;2023-05-14T01:03:22;15.30;51.10
6841;DHT22;3458;53.678;14.080;2023-05-14T01:06:07;15.30;51.10
6841;DHT22;3458;53.678;14.080;2023-05-14T01:09:00;15.20;51.10
6841;DHT22;3458;53.678;14.080;2023-05-14T01:11:45;15.10;51.00
6841;DHT22;3458;53.678;14.080;2023-05-14T01:17:10;15.00;51.20
6841;DHT22;3458;53.678;14.080;2023-05-14T01:19:41;15.00;51.30
6841;DHT22;3458;53.678;14.080;2023-05-14T01:22:07;14.90;51.50
6841;DHT22;3458;53.678;14.080;2023-05-14T01:24:33;14.90;51.80
6841;DHT22;3458;53.678;14.080;2023-05-14T01:27:24;14.80;51.90
6841;DHT22;3458;53.678;14.080;2023-05-14T01:30:19;14.80;52.30
6841;DHT22;3458;53.678;14.080;2023-05-14T01:32:48;14.80;52.40
6841;DHT22;3458;53.678;14.080;2023-05-14T01:35:15;14.80;52.60
6841;DHT22;3458;53.678;14.080;2023-05-14T01:37:41;14.80;52.70
6841;DHT22;3458;53.678;14.080;2023-05-14T01:40:09;14.80;52.90
6841;DHT22;3458;53.678;14.080;2023-05-14T01:42:35;14.80;53.00
6841;DHT22;3458;53.678;14.080;2023-05-14T01:45:01;14.80;53.10
6841;DHT22;3458;53.678;14.080;2023-05-14T01:47:27;14.70;53.10
6841;DHT22;3458;53.678;14.080;2023-05-14T01:49:52;14.70;53.20
6841;DHT22;3458;53.678;14.080;2023-05-14T01:52:19;14.70;53.30
6841;DHT22;3458;53.678;14.080;2023-05-14T01:54:46;14.70;53.40
6841;DHT22;3458;53.678;14.080;2023-05-14T01:57:11;14.70;53.50
6841;DHT22;3458;53.678;14.080;2023-05-14T01:59:37;14.70;53.60
6841;DHT22;3458;53.678;14.080;2023-05-14T02:02:02;14.70;53.60
6841;DHT22;3458;53.678;14.080;2023-05-14T02:04:28;14.70;53.60
6841;DHT22;3458;53.678;14.080;2023-05-14T02:06:53;14.60;53.60
6841;DHT22;3458;53.678;14.080;2023-05-14T02:09:19;14.60;53.60
6841;DHT22;3458;53.678;14.080;2023-05-14T02:11:44;14.60;53.60
6841;DHT22;3458;53.678;14.080;2023-05-14T02:14:10;14.60;53.60
6841;DHT22;3458;53.678;14.080;2023-05-14T02:16:36;14.60;53.70
6841;DHT22;3458;53.678;14.080;2023-05-14T02:19:01;14.60;53.80
6841;DHT22;3458;53.678;14.080;2023-05-14T02:21:27;14.50;53.90
6841;DHT22;3458;53.678;14.080;2023-05-14T02:23:52;14.50;53.80
6841;DHT22;3458;53.678;14.080;2023-05-14T02:26:18;14.50;53.80
6841;DHT22;3458;53.678;14.080;2023-05-14T02:28:43;14.50;53.90
6841;DHT22;3458;53.678;14.080;2023-05-14T02:31:10;14.50;54.00
6841;DHT22;3458;53.678;14.080;2023-05-14T02:33:35;14.50;54.10
6841;DHT22;3458;53.678;14.080;2023-05-14T02:36:01;14.50;54.10
6841;DHT22;3458;53.678;14.080;2023-05-14T02:38:26;14.50;54.10
6841;DHT22;3458;53.678;14.080;2023-05-14T02:40:52;14.50;54.10
6841;DHT22;3458;53.678;14.080;2023-05-14T02:43:17;14.50;54.10
6841;DHT22;3458;53.678;14.080;2023-05-14T02:45:43;14.50;54.00
6841;DHT22;3458;53.678;14.080;2023-05-14T02:48:08;14.50;53.80
6841;DHT22;3458;53.678;14.080;2023-05-14T02:50:33;14.40;53.80
6841;DHT22;3458;53.678;14.080;2023-05-14T02:52:59;14.40;54.00
6841;DHT22;3458;53.678;14.080;2023-05-14T02:55:26;14.30;54.00
6841;DHT22;3458;53.678;14.080;2023-05-14T02:57:51;14.30;54.20
6841;DHT22;3458;53.678;14.080;2023-05-14T03:00:18;14.30;54.20
6841;DHT22;3458;53.678;14.080;2023-05-14T03:02:43;14.30;54.20
6841;DHT22;3458;53.678;14.080;2023-05-14T03:05:09;14.30;54.30
6841;DHT22;3458;53.678;14.080;2023-05-14T03:07:35;14.30;54.40
6841;DHT22;3458;53.678;14.080;2023-05-14T03:10:00;14.20;54.60
6841;DHT22;3458;53.678;14.080;2023-05-14T03:12:26;14.20;54.60
6841;DHT22;3458;53.678;14.080;2023-05-14T03:14:52;14.20;54.60
6841;DHT22;3458;53.678;14.080;2023-05-14T03:17:17;14.20;54.70
6841;DHT22;3458;53.678;14.080;2023-05-14T03:19:42;14.20;54.80
6841;DHT22;3458;53.678;14.080;2023-05-14T03:22:08;14.20;55.00
6841;DHT22;3458;53.678;14.080;2023-05-14T03:24:34;14.20;55.10
6841;DHT22;3458;53.678;14.080;2023-05-14T03:26:59;14.20;55.20
6841;DHT22;3458;53.678;14.080;2023-05-14T03:29:25;14.20;55.30
6841;DHT22;3458;53.678;14.080;2023-05-14T03:31:50;14.20;55.40
6841;DHT22;3458;53.678;14.080;2023-05-14T03:34:16;14.30;55.50
6841;DHT22;3458;53.678;14.080;2023-05-14T03:36:41;14.30;55.50
6841;DHT22;3458;53.678;14.080;2023-05-14T03:39:07;14.30;55.70
6841;DHT22;3458;53.678;14.080;2023-05-14T03:41:33;14.30;55.80
6841;DHT22;3458;53.678;14.080;2023-05-14T03:44:00;14.30;55.90
6841;DHT22;3458;53.678;14.080;2023-05-14T03:46:25;14.30;55.90
6841;DHT22;3458;53.678;14.080;2023-05-14T03:48:51;14.30;55.90
6841;DHT22;3458;53.678;14.080;2023-05-14T03:51:16;14.40;56.00
6841;DHT22;3458;53.678;14.080;2023-05-14T03:53:42;14.40;55.90
6841;DHT22;3458;53.678;14.080;2023-05-14T03:56:07;14.40;55.90
6841;DHT22;3458;53.678;14.080;2023-05-14T03:58:33;14.40;55.80
6841;DHT22;3458;53.678;14.080;2023-05-14T04:00:58;14.50;56.00
6841;DHT22;3458;53.678;14.080;2023-05-14T04:03:24;14.50;55.90
6841;DHT22;3458;53.678;14.080;2023-05-14T04:05:50;14.50;55.90
6841;DHT22;3458;53.678;14.080;2023-05-14T04:08:16;14.60;56.00
6841;DHT22;3458;53.678;14.080;2023-05-14T04:10:42;14.60;56.10
6841;DHT22;3458;53.678;14.080;2023-05-14T04:13:07;14.60;56.30
6841;DHT22;3458;53.678;14.080;2023-05-14T04:15:33;14.60;56.30
6841;DHT22;3458;53.678;14.080;2023-05-14T04:18:00;14.60;56.40
6841;DHT22;3458;53.678;14.080;2023-05-14T04:20:25;14.60;56.40
6841;DHT22;3458;53.678;14.080;2023-05-14T04:22:53;14.60;56.60
6841;DHT22;3458;53.678;14.080;2023-05-14T04:25:18;14.60;56.80
6841;DHT22;3458;53.678;14.080;2023-05-14T04:27:44;14.60;57.00
6841;DHT22;3458;53.678;14.080;2023-05-14T04:30:10;14.60;57.00
6841;DHT22;3458;53.678;14.080;2023-05-14T04:32:36;14.60;57.00
6841;DHT22;3458;53.678;14.080;2023-05-14T04:35:02;14.70;57.20
6841;DHT22;3458;53.678;14.080;2023-05-14T04:37:28;14.70;57.20
6841;DHT22;3458;53.678;14.080;2023-05-14T04:39:54;14.70;57.40
6841;DHT22;3458;53.678;14.080;2023-05-14T04:42:19;14.60;57.60
6841;DHT22;3458;53.678;14.080;2023-05-14T04:44:45;14.60;57.80
6841;DHT22;3458;53.678;14.080;2023-05-14T04:47:11;14.50;58.10
6841;DHT22;3458;53.678;14.080;2023-05-14T04:49:36;14.60;58.60
6841;DHT22;3458;53.678;14.080;2023-05-14T04:52:02;14.60;58.30
6841;DHT22;3458;53.678;14.080;2023-05-14T04:54:27;14.70;58.30
6841;DHT22;3458;53.678;14.080;2023-05-14T04:56:53;14.70;59.00
6841;DHT22;3458;53.678;14.080;2023-05-14T04:59:20;14.70;58.50
6841;DHT22;3458;53.678;14.080;2023-05-14T05:01:46;14.80;58.30
6841;DHT22;3458;53.678;14.080;2023-05-14T05:04:11;14.80;58.20
6841;DHT22;3458;53.678;14.080;2023-05-14T05:06:37;14.90;58.20
6841;DHT22;3458;53.678;14.080;2023-05-14T05:09:02;15.00;58.30
6841;DHT22;3458;53.678;14.080;2023-05-14T05:11:28;15.10;58.30
6841;DHT22;3458;53.678;14.080;2023-05-14T05:13:54;15.10;58.00
6841;DHT22;3458;53.678;14.080;2023-05-14T05:16:19;15.20;58.00
6841;DHT22;3458;53.678;14.080;2023-05-14T05:18:45;15.20;58.90
6841;DHT22;3458;53.678;14.080;2023-05-14T05:21:10;15.30;58.50
6841;DHT22;3458;53.678;14.080;2023-05-14T05:23:36;15.30;58.20
6841;DHT22;3458;53.678;14.080;2023-05-14T05:26:01;15.40;58.50
6841;DHT22;3458;53.678;14.080;2023-05-14T05:28:27;15.50;58.50
6841;DHT22;3458;53.678;14.080;2023-05-14T05:30:52;15.50;58.70
6841;DHT22;3458;53.678;14.080;2023-05-14T05:33:18;15.50;58.40
6841;DHT22;3458;53.678;14.080;2023-05-14T05:35:44;15.60;58.20
6841;DHT22;3458;53.678;14.080;2023-05-14T05:38:09;15.60;58.00
6841;DHT22;3458;53.678;14.080;2023-05-14T05:40:35;15.60;57.50
6841;DHT22;3458;53.678;14.080;2023-05-14T05:43:00;15.70;57.50
6841;DHT22;3458;53.678;14.080;2023-05-14T05:45:26;15.70;57.20
6841;DHT22;3458;53.678;14.080;2023-05-14T05:47:51;15.80;57.30
6841;DHT22;3458;53.678;14.080;2023-05-14T05:50:17;15.90;57.30
6841;DHT22;3458;53.678;14.080;2023-05-14T05:52:42;15.90;57.10
6841;DHT22;3458;53.678;14.080;2023-05-14T05:55:08;16.00;57.10
6841;DHT22;3458;53.678;14.080;2023-05-14T05:57:34;16.00;57.20
6841;DHT22;3458;53.678;14.080;2023-05-14T05:59:59;16.10;57.10
6841;DHT22;3458;53.678;14.080;2023-05-14T06:02:25;16.10;56.80
6841;DHT22;3458;53.678;14.080;2023-05-14T06:04:50;16.20;56.20
6841;DHT22;3458;53.678;14.080;2023-05-14T06:07:17;16.20;55.50
6841;DHT22;3458;53.678;14.080;2023-05-14T06:09:42;16.20;54.60
6841;DHT22;3458;53.678;14.080;2023-05-14T06:12:08;16.20;54.20
6841;DHT22;3458;53.678;14.080;2023-05-14T06:14:33;16.30;53.70
6841;DHT22;3458;53.678;14.080;2023-05-14T06:16:59;16.30;53.50
6841;DHT22;3458;53.678;14.080;2023-05-14T06:19:25;16.30;52.80
6841;DHT22;3458;53.678;14.080;2023-05-14T06:21:50;16.40;52.40
6841;DHT22;3458;53.678;14.080;2023-05-14T06:24:16;16.40;51.60
6841;DHT22;3458;53.678;14.080;2023-05-14T06:26:41;16.50;51.20
6841;DHT22;3458;53.678;14.080;2023-05-14T06:29:07;16.50;51.10
6841;DHT22;3458;53.678;14.080;2023-05-14T06:31:32;16.60;50.70
6841;DHT22;3458;53.678;14.080;2023-05-14T06:33:58;16.60;50.40
6841;DHT22;3458;53.678;14.080;2023-05-14T06:36:23;16.70;50.60
6841;DHT22;3458;53.678;14.080;2023-05-14T06:38:49;16.70;50.50
6841;DHT22;3458;53.678;14.080;2023-05-14T06:41:15;16.80;50.50
6841;DHT22;3458;53.678;14.080;2023-05-14T06:43:41;16.90;50.10
6841;DHT22;3458;53.678;14.080;2023-05-14T06:46:06;16.90;50.00
6841;DHT22;3458;53.678;14.080;2023-05-14T06:48:32;17.00;49.70
6841;DHT22;3458;53.678;14.080;2023-05-14T06:50:57;17.10;49.40
6841;DHT22;3458;53.678;14.080;2023-05-14T06:53:23;17.10;48.80
6841;DHT22;3458;53.678;14.080;2023-05-14T06:55:48;17.20;48.70
6841;DHT22;3458;53.678;14.080;2023-05-14T06:58:14;17.20;48.90
6841;DHT22;3458;53.678;14.080;2023-05-14T07:00:40;17.30;49.10
6841;DHT22;3458;53.678;14.080;2023-05-14T07:03:05;17.30;48.40
6841;DHT22;3458;53.678;14.080;2023-05-14T07:05:31;17.30;48.30
6841;DHT22;3458;53.678;14.080;2023-05-14T07:07:56;17.40;48.20
6841;DHT22;3458;53.678;14.080;2023-05-14T07:10:22;17.40;48.00
6841;DHT22;3458;53.678;14.080;2023-05-14T07:12:48;17.40;47.80
6841;DHT22;3458;53.678;14.080;2023-05-14T07:15:13;17.50;47.80
6841;DHT22;3458;53.678;14.080;2023-05-14T07:17:40;17.50;47.40
6841;DHT22;3458;53.678;14.080;2023-05-14T07:20:06;17.60;46.20
6841;DHT22;3458;53.678;14.080;2023-05-14T07:22:31;17.60;46.00
6841;DHT22;3458;53.678;14.080;2023-05-14T07:24:57;17.70;46.20
6841;DHT22;3458;53.678;14.080;2023-05-14T07:27:22;17.70;46.40
6841;DHT22;3458;53.678;14.080;2023-05-14T07:29:49;17.80;46.60
6841;DHT22;3458;53.678;14.080;2023-05-14T07:32:15;17.80;47.40
6841;DHT22;3458;53.678;14.080;2023-05-14T07:34:40;17.90;48.20
6841;DHT22;3458;53.678;14.080;2023-05-14T07:37:06;18.00;49.00
6841;DHT22;3458;53.678;14.080;2023-05-14T07:39:31;18.10;49.60
6841;DHT22;3458;53.678;14.080;2023-05-14T07:41:57;18.10;48.40
6841;DHT22;3458;53.678;14.080;2023-05-14T07:44:22;18.20;48.00
6841;DHT22;3458;53.678;14.080;2023-05-14T07:46:48;18.30;48.20
6841;DHT22;3458;53.678;14.080;2023-05-14T07:49:13;18.40;46.80
6841;DHT22;3458;53.678;14.080;2023-05-14T07:51:39;18.50;45.20
6841;DHT22;3458;53.678;14.080;2023-05-14T07:54:04;18.60;46.10
6841;DHT22;3458;53.678;14.080;2023-05-14T07:56:30;18.60;46.70
6841;DHT22;3458;53.678;14.080;2023-05-14T07:58:55;18.70;46.70
6841;DHT22;3458;53.678;14.080;2023-05-14T08:01:21;18.70;46.20
6841;DHT22;3458;53.678;14.080;2023-05-14T08:03:47;18.80;46.30
6841;DHT22;3458;53.678;14.080;2023-05-14T08:06:12;18.90;45.40
6841;DHT22;3458;53.678;14.080;2023-05-14T08:08:38;18.90;42.80
6841;DHT22;3458;53.678;14.080;2023-05-14T08:11:03;18.90;42.60
6841;DHT22;3458;53.678;14.080;2023-05-14T08:13:29;19.10;44.00
6841;DHT22;3458;53.678;14.080;2023-05-14T08:15:55;19.10;40.60
6841;DHT22;3458;53.678;14.080;2023-05-14T08:18:20;19.10;39.80
6841;DHT22;3458;53.678;14.080;2023-05-14T08:20:46;19.20;39.20
6841;DHT22;3458;53.678;14.080;2023-05-14T08:23:12;19.30;39.50
6841;DHT22;3458;53.678;14.080;2023-05-14T08:25:38;19.40;38.90
6841;DHT22;3458;53.678;14.080;2023-05-14T08:28:03;19.40;39.20
6841;DHT22;3458;53.678;14.080;2023-05-14T08:30:29;19.40;40.60
6841;DHT22;3458;53.678;14.080;2023-05-14T08:32:54;19.50;41.40
6841;DHT22;3458;53.678;14.080;2023-05-14T08:35:20;19.70;42.20
6841;DHT22;3458;53.678;14.080;2023-05-14T08:37:45;19.80;40.50
6841;DHT22;3458;53.678;14.080;2023-05-14T08:40:11;19.90;39.30
6841;DHT22;3458;53.678;14.080;2023-05-14T08:42:38;20.00;38.70
6841;DHT22;3458;53.678;14.080;2023-05-14T08:45:18;20.00;38.20
6841;DHT22;3458;53.678;14.080;2023-05-14T08:47:48;20.10;37.80
6841;DHT22;3458;53.678;14.080;2023-05-14T08:50:17;20.30;39.80
6841;DHT22;3458;53.678;14.080;2023-05-14T08:52:44;20.50;41.70
6841;DHT22;3458;53.678;14.080;2023-05-14T08:55:11;20.70;43.50
6841;DHT22;3458;53.678;14.080;2023-05-14T08:57:37;20.80;43.60
6841;DHT22;3458;53.678;14.080;2023-05-14T09:00:03;20.80;42.20
6841;DHT22;3458;53.678;14.080;2023-05-14T09:02:33;20.80;42.80
6841;DHT22;3458;53.678;14.080;2023-05-14T09:05:00;20.80;41.60
6841;DHT22;3458;53.678;14.080;2023-05-14T09:07:26;20.70;39.20
6841;DHT22;3458;53.678;14.080;2023-05-14T09:09:53;20.70;38.90
6841;DHT22;3458;53.678;14.080;2023-05-14T09:12:19;20.60;40.40
6841;DHT22;3458;53.678;14.080;2023-05-14T09:14:47;20.60;40.00
6841;DHT22;3458;53.678;14.080;2023-05-14T09:17:13;20.60;39.00
6841;DHT22;3458;53.678;14.080;2023-05-14T09:19:42;20.60;38.80
6841;DHT22;3458;53.678;14.080;2023-05-14T09:22:11;20.70;39.60
6841;DHT22;3458;53.678;14.080;2023-05-14T09:24:37;20.90;39.70
6841;DHT22;3458;53.678;14.080;2023-05-14T09:27:07;21.00;40.40
6841;DHT22;3458;53.678;14.080;2023-05-14T09:29:33;21.30;36.30
6841;DHT22;3458;53.678;14.080;2023-05-14T09:31:59;21.30;32.50
6841;DHT22;3458;53.678;14.080;2023-05-14T09:34:30;21.30;34.50
6841;DHT22;3458;53.678;14.080;2023-05-14T09:39:25;21.20;35.10
6841;DHT22;3458;53.678;14.080;2023-05-14T09:41:51;21.30;32.50
6841;DHT22;3458;53.678;14.080;2023-05-14T09:44:17;21.50;30.90
6841;DHT22;3458;53.678;14.080;2023-05-14T09:46:46;21.50;29.90
6841;DHT22;3458;53.678;14.080;2023-05-14T09:49:12;21.60;29.50
6841;DHT22;3458;53.678;14.080;2023-05-14T09:51:38;21.50;29.20
6841;DHT22;3458;53.678;14.080;2023-05-14T09:54:04;21.40;29.10
6841;DHT22;3458;53.678;14.080;2023-05-14T09:56:31;21.40;29.50
6841;DHT22;3458;53.678;14.080;2023-05-14T09:58:57;21.40;31.20
6841;DHT22;3458;53.678;14.080;2023-05-14T10:01:23;21.40;30.70
6841;DHT22;3458;53.678;14.080;2023-05-14T10:03:49;21.60;31.70
6841;DHT22;3458;53.678;14.080;2023-05-14T10:06:18;21.60;30.20
6841;DHT22;3458;53.678;14.080;2023-05-14T10:08:46;21.50;29.70
6841;DHT22;3458;53.678;14.080;2023-05-14T10:11:15;21.30;29.60
6841;DHT22;3458;53.678;14.080;2023-05-14T10:14:01;21.20;30.50
6841;DHT22;3458;53.678;14.080;2023-05-14T10:16:32;21.10;30.00
6841;DHT22;3458;53.678;14.080;2023-05-14T10:19:11;21.00;30.20
6841;DHT22;3458;53.678;14.080;2023-05-14T10:21:39;20.90;30.50
6841;DHT22;3458;53.678;14.080;2023-05-14T10:24:06;20.90;30.90
6841;DHT22;3458;53.678;14.080;2023-05-14T10:26:33;21.00;31.10
6841;DHT22;3458;53.678;14.080;2023-05-14T10:29:02;21.00;30.50
6841;DHT22;3458;53.678;14.080;2023-05-14T10:31:47;21.10;31.60
6841;DHT22;3458;53.678;14.080;2023-05-14T10:34:36;21.20;31.20
6841;DHT22;3458;53.678;14.080;2023-05-14T10:37:04;21.30;31.20
6841;DHT22;3458;53.678;14.080;2023-05-14T10:39:53;21.50;30.70
6841;DHT22;3458;53.678;14.080;2023-05-14T10:42:26;21.50;30.10
6841;DHT22;3458;53.678;14.080;2023-05-14T10:44:54;21.40;30.00
6841;DHT22;3458;53.678;14.080;2023-05-14T10:47:22;21.30;29.80
6841;DHT22;3458;53.678;14.080;2023-05-14T10:49:48;21.30;30.00
6841;DHT22;3458;53.678;14.080;2023-05-14T10:52:16;21.40;30.80
6841;DHT22;3458;53.678;14.080;2023-05-14T10:54:57;21.40;32.00
6841;DHT22;3458;53.678;14.080;2023-05-14T10:57:27;21.40;30.60
6841;DHT22;3458;53.678;14.080;2023-05-14T10:59:55;21.50;29.60
6841;DHT22;3458;53.678;14.080;2023-05-14T11:05:05;21.60;31.90
6841;DHT22;3458;53.678;14.080;2023-05-14T11:10:04;21.60;30.20
6841;DHT22;3458;53.678;14.080;2023-05-14T11:12:31;21.50;31.80
6841;DHT22;3458;53.678;14.080;2023-05-14T11:14:58;21.40;31.60
6841;DHT22;3458;53.678;14.080;2023-05-14T11:17:28;21.20;33.00
6841;DHT22;3458;53.678;14.080;2023-05-14T11:19:55;21.00;34.30
6841;DHT22;3458;53.678;14.080;2023-05-14T11:22:21;20.80;35.70
6841;DHT22;3458;53.678;14.080;2023-05-14T11:24:47;20.60;38.00
6841;DHT22;3458;53.678;14.080;2023-05-14T11:27:12;20.40;40.20
6841;DHT22;3458;53.678;14.080;2023-05-14T11:29:38;20.20;42.60
6841;DHT22;3458;53.678;14.080;2023-05-14T11:32:07;20.10;45.00
6841;DHT22;3458;53.678;14.080;2023-05-14T11:34:33;20.00;46.60
6841;DHT22;3458;53.678;14.080;2023-05-14T11:37:05;19.80;45.40
6841;DHT22;3458;53.678;14.080;2023-05-14T11:39:31;19.50;48.50
6841;DHT22;3458;53.678;14.080;2023-05-14T11:41:58;19.40;49.90
6841;DHT22;3458;53.678;14.080;2023-05-14T11:44:24;19.40;51.60
6841;DHT22;3458;53.678;14.080;2023-05-14T11:46:56;19.30;52.70
6841;DHT22;3458;53.678;14.080;2023-05-14T11:49:23;19.30;54.40
6841;DHT22;3458;53.678;14.080;2023-05-14T11:51:59;19.30;55.30
6841;DHT22;3458;53.678;14.080;2023-05-14T11:54:30;19.30;53.90
6841;DHT22;3458;53.678;14.080;2023-05-14T11:56:56;19.30;48.80
6841;DHT22;3458;53.678;14.080;2023-05-14T11:59:30;19.30;47.60
6841;DHT22;3458;53.678;14.080;2023-05-14T12:01:56;19.20;46.10
6841;DHT22;3458;53.678;14.080;2023-05-14T12:04:22;19.20;45.00
6841;DHT22;3458;53.678;14.080;2023-05-14T12:06:51;19.20;44.60
6841;DHT22;3458;53.678;14.080;2023-05-14T12:09:21;19.20;45.60
6841;DHT22;3458;53.678;14.080;2023-05-14T12:11:48;19.20;45.30
6841;DHT22;3458;53.678;14.080;2023-05-14T12:14:19;19.20;46.80
6841;DHT22;3458;53.678;14.080;2023-05-14T12:16:45;19.20;47.00
6841;DHT22;3458;53.678;14.080;2023-05-14T12:19:13;19.10;47.60
6841;DHT22;3458;53.678;14.080;2023-05-14T12:21:39;19.20;48.10
6841;DHT22;3458;53.678;14.080;2023-05-14T12:24:11;19.30;49.00
6841;DHT22;3458;53.678;14.080;2023-05-14T12:26:37;19.40;50.20
6841;DHT22;3458;53.678;14.080;2023-05-14T12:29:03;19.50;51.50
6841;DHT22;3458;53.678;14.080;2023-05-14T12:31:35;19.50;50.30
6841;DHT22;3458;53.678;14.080;2023-05-14T12:34:02;19.40;51.00
6841;DHT22;3458;53.678;14.080;2023-05-14T12:36:28;19.50;51.90
6841;DHT22;3458;53.678;14.080;2023-05-14T12:39:00;19.70;52.60
6841;DHT22;3458;53.678;14.080;2023-05-14T12:41:26;19.90;50.90
6841;DHT22;3458;53.678;14.080;2023-05-14T12:43:52;20.00;49.70
6841;DHT22;3458;53.678;14.080;2023-05-14T12:46:17;20.10;49.90
6841;DHT22;3458;53.678;14.080;2023-05-14T12:48:43;20.20;49.20
6841;DHT22;3458;53.678;14.080;2023-05-14T12:51:09;20.30;48.50
6841;DHT22;3458;53.678;14.080;2023-05-14T12:53:34;20.40;48.00
6841;DHT22;3458;53.678;14.080;2023-05-14T12:56:00;20.50;47.50
6841;DHT22;3458;53.678;14.080;2023-05-14T12:58:25;20.60;47.10
6841;DHT22;3458;53.678;14.080;2023-05-14T13:00:51;20.60;46.70
6841;DHT22;3458;53.678;14.080;2023-05-14T13:03:16;20.60;46.20
6841;DHT22;3458;53.678;14.080;2023-05-14T13:05:42;20.50;45.30
6841;DHT22;3458;53.678;14.080;2023-05-14T13:08:08;20.40;45.70
6841;DHT22;3458;53.678;14.080;2023-05-14T13:10:34;20.30;46.30
6841;DHT22;3458;53.678;14.080;2023-05-14T13:12:59;20.30;46.90
6841;DHT22;3458;53.678;14.080;2023-05-14T13:15:26;20.20;47.30
6841;DHT22;3458;53.678;14.080;2023-05-14T13:17:52;20.20;48.70
6841;DHT22;3458;53.678;14.080;2023-05-14T13:20:17;20.10;46.90
6841;DHT22;3458;53.678;14.080;2023-05-14T13:22:43;20.20;47.20
6841;DHT22;3458;53.678;14.080;2023-05-14T13:25:09;20.10;47.20
6841;DHT22;3458;53.678;14.080;2023-05-14T13:27:35;20.20;48.00
6841;DHT22;3458;53.678;14.080;2023-05-14T13:30:01;20.30;47.80
6841;DHT22;3458;53.678;14.080;2023-05-14T13:32:28;20.40;47.00
6841;DHT22;3458;53.678;14.080;2023-05-14T13:34:53;20.80;47.20
6841;DHT22;3458;53.678;14.080;2023-05-14T13:37:19;21.50;47.40
6841;DHT22;3458;53.678;14.080;2023-05-14T13:39:44;22.80;45.80
6841;DHT22;3458;53.678;14.080;2023-05-14T13:42:10;23.80;41.20
6841;DHT22;3458;53.678;14.080;2023-05-14T13:44:35;24.90;38.40
6841;DHT22;3458;53.678;14.080;2023-05-14T13:47:01;26.20;36.50
6841;DHT22;3458;53.678;14.080;2023-05-14T13:49:26;26.50;33.30
6841;DHT22;3458;53.678;14.080;2023-05-14T13:51:52;26.00;34.40
6841;DHT22;3458;53.678;14.080;2023-05-14T13:54:17;25.50;34.50
6841;DHT22;3458;53.678;14.080;2023-05-14T13:56:43;24.80;36.00
6841;DHT22;3458;53.678;14.080;2023-05-14T13:59:08;24.60;37.50
6841;DHT22;3458;53.678;14.080;2023-05-14T14:01:35;25.60;37.80
6841;DHT22;3458;53.678;14.080;2023-05-14T14:04:00;27.20;36.60
6841;DHT22;3458;53.678;14.080;2023-05-14T14:06:26;27.70;35.10
6841;DHT22;3458;53.678;14.080;2023-05-14T14:08:52;26.60;35.10
6841;DHT22;3458;53.678;14.080;2023-05-14T14:11:17;25.30;36.20
6841;DHT22;3458;53.678;14.080;2023-05-14T14:13:43;24.40;37.60
6841;DHT22;3458;53.678;14.080;2023-05-14T14:16:08;23.60;38.90
6841;DHT22;3458;53.678;14.080;2023-05-14T14:18:34;23.50;40.00
6841;DHT22;3458;53.678;14.080;2023-05-14T14:21:00;23.40;40.50
6841;DHT22;3458;53.678;14.080;2023-05-14T14:23:25;23.30;40.00
6841;DHT22;3458;53.678;14.080;2023-05-14T14:25:51;23.30;41.20
6841;DHT22;3458;53.678;14.080;2023-05-14T14:28:16;23.50;41.30
6841;DHT22;3458;53.678;14.080;2023-05-14T14:30:43;23.30;41.20
6841;DHT22;3458;53.678;14.080;2023-05-14T14:33:08;22.90;40.50
6841;DHT22;3458;53.678;14.080;2023-05-14T14:35:34;22.40;38.80
6841;DHT22;3458;53.678;14.080;2023-05-14T14:38:00;22.00;39.10
6841;DHT22;3458;53.678;14.080;2023-05-14T14:40:26;21.60;39.90
6841;DHT22;3458;53.678;14.080;2023-05-14T14:42:51;21.30;41.10
6841;DHT22;3458;53.678;14.080;2023-05-14T14:45:17;21.10;42.10
6841;DHT22;3458;53.678;14.080;2023-05-14T14:47:44;20.90;42.90
6841;DHT22;3458;53.678;14.080;2023-05-14T14:50:11;20.70;43.60
6841;DHT22;3458;53.678;14.080;2023-05-14T14:52:38;20.60;44.00
6841;DHT22;3458;53.678;14.080;2023-05-14T14:55:04;20.60;44.50
6841;DHT22;3458;53.678;14.080;2023-05-14T14:57:30;20.60;44.90
6841;DHT22;3458;53.678;14.080;2023-05-14T14:59:56;20.80;45.10
6841;DHT22;3458;53.678;14.080;2023-05-14T15:02:21;21.00;45.40
6841;DHT22;3458;53.678;14.080;2023-05-14T15:04:47;21.20;45.50
6841;DHT22;3458;53.678;14.080;2023-05-14T15:07:12;21.40;45.50
6841;DHT22;3458;53.678;14.080;2023-05-14T15:09:40;21.60;45.50
6841;DHT22;3458;53.678;14.080;2023-05-14T15:12:06;21.80;45.10
6841;DHT22;3458;53.678;14.080;2023-05-14T15:14:33;22.10;44.90
6841;DHT22;3458;53.678;14.080;2023-05-14T15:16:59;22.10;44.30
6841;DHT22;3458;53.678;14.080;2023-05-14T15:19:24;22.20;43.80
6841;DHT22;3458;53.678;14.080;2023-05-14T15:21:50;22.40;42.60
6841;DHT22;3458;53.678;14.080;2023-05-14T15:24:16;22.50;42.70
6841;DHT22;3458;53.678;14.080;2023-05-14T15:26:41;24.10;42.40
6841;DHT22;3458;53.678;14.080;2023-05-14T15:29:07;26.20;39.30
6841;DHT22;3458;53.678;14.080;2023-05-14T15:31:32;27.70;36.60
6841;DHT22;3458;53.678;14.080;2023-05-14T15:33:58;28.40;36.20
6841;DHT22;3458;53.678;14.080;2023-05-14T15:36:23;29.30;35.30
6841;DHT22;3458;53.678;14.080;2023-05-14T15:38:49;29.70;33.40
6841;DHT22;3458;53.678;14.080;2023-05-14T15:41:15;30.00;32.30
6841;DHT22;3458;53.678;14.080;2023-05-14T15:43:40;29.00;32.30
6841;DHT22;3458;53.678;14.080;2023-05-14T15:46:06;27.50;34.00
6841;DHT22;3458;53.678;14.080;2023-05-14T15:48:31;26.10;36.50
6841;DHT22;3458;53.678;14.080;2023-05-14T15:50:57;24.90;38.40